Jack C. Davis Observatory, Carson City, Nevada Weather observations

Data are for observation ending at time listed.
 Day   Time    Ave.   Ave.  Ave.  Vector   Max.   Stn.    Total    Solar   Ave.  
  of    of     Air    Rel.  Wind   Wind    Wind   Baro.  Precip.   Rad.    Soil  
Year   Day     Temp.  Hum.  Speed  Dir.    Gust   Pres.                    Temp. 
2016   (PST)    F      %     mph   deg.    mph     mb.     in.     W/m2     F   
------------------------------------------------------------------------------
 179   10:50   86.2    12    4.1    61      6.6   601.5    0.00     982    999.0
 179   11:00   87.6    11    3.5   119      7.5   601.5    0.00     992    999.0
 179   11:10   87.8    11    3.8   126      7.5   601.8    0.00    1002    999.0
 179   11:20   89.8    11    5.1   129     13.5   601.8    0.00    1011    999.0
 179   11:30   90.5     8    8.9   162     15.8   601.5    0.00    1020    999.0
 179   11:40   91.8     7    9.8   184     17.2   601.2    0.00    1025    999.0
 179   11:50   91.9     8    9.7   181     16.8   601.9    0.00    1026    999.0
 179   12:00   90.8     9    9.3   238     15.5   602.0    0.00    1025    999.0
 179   12:10   91.6     8    9.9   214     16.4   602.0    0.00    1027    999.0
 179   12:20   91.3     8    9.5   216     18.9   602.2    0.00    1025    999.0
 179   12:30   91.2    10    5.8   254     12.9   603.0    0.00    1015    999.0
 179   12:40   91.3    10    8.1   263     15.2   602.2    0.00    1011    999.0
 179   12:50   91.0    10   11.1   278     18.2   602.1    0.00    1007    999.0
 179   13:00   90.6    10    9.1   280     18.0   602.3    0.00     996    999.0
 179   13:10   90.9    10   10.7   285     19.5   601.7    0.00     987    999.0
 179   13:20   91.3    10   11.8   289     21.8   602.1    0.00     977    999.0
 179   13:30   90.6    10   12.7   291     19.6   601.9    0.00     966    999.0
 179   13:40   90.9    10   12.7   285     21.2   602.3    0.00     952    999.0
 179   13:50   90.9    10   12.3   291     19.1   602.1    0.00     935    999.0
 179   14:00   90.9    10   12.5   275     20.0   602.3    0.00     919    999.0
 179   14:10   90.3    10   13.1   286     21.8   602.3    0.00     900    999.0
 179   14:20   90.7    10   13.2   276     22.2   601.9    0.00     885    999.0
 179   14:30   90.6    10   12.8   266     20.5   601.6    0.00     865    999.0
 179   14:40   91.0    10   12.5   267     19.6   601.7    0.00     841    999.0
 179   14:50   90.4    10   12.9   266     21.0   601.6    0.00     823    999.0
 179   15:00   90.5    10   13.2   288     21.5   601.8    0.00     797    999.0
 179   15:10   90.2    10   13.5   281     22.6   601.3    0.00     769    999.0
 179   15:20   89.9    11   12.9   276     18.9   600.2    0.00     745    999.0
 179   15:30   89.6    11   14.1   261     21.5   600.6    0.00     713    999.0
 179   15:40   89.7    11   12.9   263     18.7   600.5    0.00     688    999.0
 179   15:50   89.5    11   12.7   257     21.0   601.5    0.00     659    999.0
 179   16:00   89.2    12   13.7   259     20.8   601.1    0.00     632    999.0
 179   16:10   88.6    12   13.9   267     21.1   600.9    0.00     601    999.0
 179   16:20   88.5    12   13.5   258     20.5   600.2    0.00     573    999.0
 179   16:30   88.2    12   13.9   258     18.7   600.4    0.00     540    999.0
 179   16:40   88.1    13   11.7   256     17.6   600.5    0.00     505    999.0
 179   16:50   88.4    12   10.6   264     17.0   600.2    0.00     473    999.0
 179   17:00   88.0    13   10.2   258     17.0   601.1    0.00     442    999.0
 179   17:10   87.3    13   11.8   254     17.7   601.9    0.00     409    999.0
 179   17:20   86.9    12   12.1   254     20.1   601.5    0.00     375    999.0
 179   17:30   86.5    12   12.3   256     17.8   601.1    0.00     341    999.0
 179   17:40   86.2    12   11.7   254     19.2   601.4    0.00     307    999.0
 179   17:50   85.7    13   11.3   258     17.3   601.7    0.00     274    999.0
 179   18:00   85.2    14   11.7   270     16.8   601.5    0.00     242    999.0
 179   18:10   84.8    14   11.1   270     17.1   601.6    0.00     211    999.0
 179   18:20   84.2    14    9.4   266     14.8   601.6    0.00     179    999.0
 179   18:30   83.1    14    8.5   260     12.2   601.5    0.00     110    999.0
 179   18:40   81.9    15    7.7   249     12.4   601.4    0.00      18    999.0
 179   18:50   81.0    15    6.8   262     11.7   601.4    0.00      16    999.0
 179   19:00   81.4    15   10.8   274     16.7   601.2    0.00      14    999.0
 179   19:10   81.7    15   12.4   283     18.7   601.1    0.00      11    999.0
 179   19:20   81.9    14   12.4   290     19.8   601.1    0.00       8    999.0
 179   19:30   81.3    16   11.9   283     19.1   601.0    0.00       5    999.0
 179   19:40   80.9    16   13.8   286     21.9   601.0    0.00       2    999.0
 179   19:50   80.9    16   11.9   295     18.9   601.1    0.00       1    999.0
 179   20:00   80.3    16   10.6   278     17.4   601.1    0.00       1    999.0
 179   20:10   79.9    16    9.9   279     15.0   601.1    0.00       0    999.0
 179   20:20   80.0    16   10.5   288     17.2   601.1    0.00       0    999.0
 179   20:30   78.8    17    7.9   279     12.6   601.1    0.00       0    999.0
 179   20:40   78.2    18    7.7   283     13.8   601.1    0.00       0    999.0
 179   20:50   77.4    18    7.4   289     11.0   601.1    0.00       0    999.0
 179   21:00   77.3    18    6.2   286     11.5   601.1    0.00       0    999.0
 179   21:10   76.3    19    4.0   264      9.0   601.3    0.00       0    999.0
 179   21:20   76.2    19    1.5     3      5.0   601.4    0.00       0    999.0
 179   21:30   76.1    19    0.9   113      2.8   601.3    0.00       0    999.0
 179   21:40   75.2    20    2.8   255      7.6   601.4    0.00       0    999.0
 179   21:50   73.5    21    6.7   269      9.9   601.1    0.00       0    999.0
 179   22:00   75.5    20    8.0   284     11.2   601.1    0.00       0    999.0
 179   22:10   77.3    18    8.8   296     12.6   601.1    0.00       0    999.0
 179   22:20   77.0    18    7.4   286     11.8   601.1    0.00       0    999.0
 179   22:30   76.0    18    2.8   305      7.3   601.2    0.00       0    999.0
 179   22:40   74.0    20    3.9   288      6.4   601.1    0.00       0    999.0
 179   22:50   73.0    21    4.2   263      7.4   601.1    0.00       1    999.0
 179   23:00   70.2    24    3.9   287      5.6   601.1    0.00       1    999.0
 179   23:10   69.2    25    5.5   280      9.2   601.0    0.00       0    999.0
 179   23:20   69.8    24    4.2   289      6.1   601.0    0.00       0    999.0
 179   23:30   68.6    26    5.9   278      8.6   601.0    0.00       0    999.0
 179   23:40   68.5    25    5.6   312      8.1   601.0    0.00       0    999.0
 179   23:50   69.6    24    5.0   306      7.5   601.0    0.00       0    999.0
 180    0:00   68.8    23    4.6   295      6.8   601.0    0.00       1    999.0
 180    0:10   71.5    21    7.9   297     12.6   601.0    0.00       0    999.0
 180    0:20   72.6    21    9.0   298     13.7   600.9    0.00       0    999.0
 180    0:30   71.3    22    7.4   288     11.5   600.7    0.00       1    999.0
 180    0:40   70.6    23    8.7   285     12.9   601.0    0.00       1    999.0
 180    0:50   71.9    21    6.7   298     10.5   601.0    0.00       1    999.0
 180    1:00   70.7    23    6.8   314     10.1   601.0    0.00       0    999.0
 180    1:10   69.0    26    5.6   311      8.8   601.0    0.00       1    999.0
 180    1:20   67.8    26    5.1   303      9.1   600.9    0.00       1    999.0
 180    1:30   66.7    28    5.9   310     11.1   600.9    0.00       1    999.0
 180    1:40   66.7    27    6.8   311     10.7   600.9    0.00       1    999.0
 180    1:50   68.4    23    6.5   316     11.3   600.9    0.00       0    999.0
 180    2:00   68.3    25    6.5   322     11.2   600.9    0.00       0    999.0
 180    2:10   67.4    26    4.6   319      8.2   600.9    0.00       1    999.0
 180    2:20   67.2    26    4.4   321      7.5   600.9    0.00       0    999.0
 180    2:30   67.3    26    6.4   322     10.2   600.9    0.00       1    999.0
 180    2:40   66.4    27    6.2   324     11.6   600.9    0.00       1    999.0
 180    2:50   65.3    29    5.8   331     11.1   600.9    0.00       1    999.0
 180    3:00   65.3    28    8.0   322     12.3   600.9    0.00       1    999.0
 180    3:10   64.5    31    6.5   322     12.7   600.9    0.00       1    999.0
 180    3:20   62.7    34    3.9   331      8.6   601.0    0.00       1    999.0
 180    3:30   63.0    30    3.0   302      5.2   600.9    0.00       1    999.0
 180    3:40   64.0    27    6.2   311      9.3   600.9    0.00       1    999.0
 180    3:50   65.9    26    7.8   306     11.8   600.9    0.00       1    999.0
 180    4:00   65.9    26    5.5   309      9.6   600.9    0.00       1    999.0
 180    4:10   64.2    28    4.3   298      8.1   600.9    0.00       1    999.0
 180    4:20   64.5    27    5.8   295     11.1   600.9    0.00       1    999.0
 180    4:30   65.4    26    3.2   321      7.1   601.0    0.00       1    999.0
 180    4:40   65.6    26    2.0   348      5.7   600.9    0.00       3    999.0
 180    4:50   64.6    28    2.5   309      4.5   600.9    0.00       9    999.0
 180    5:00   61.9    31    3.0   309      4.7   600.9    0.00      27    999.0
 180    5:10   61.6    33    2.0   343      4.2   600.9    0.00      51    999.0
 180    5:20   61.9    34    1.7   318      2.8   600.9    0.00      81    999.0
 180    5:30   63.5    33    1.3   333      3.1   600.9    0.00     110    999.0
 180    5:40   63.6    34    2.6   314      4.2   600.9    0.00     138    999.0
 180    5:50   65.4    31    3.8   332      6.6   600.9    0.00     168    999.0
 180    6:00   66.9    30    1.7    85      3.8   601.0    0.00     198    999.0
 180    6:10   67.3    30    1.9   126      4.4   600.9    0.00     229    999.0
 180    6:20   70.1    27    0.4   140      1.4   600.9    0.00     261    999.0
 180    6:30   72.6    25    0.3   156      1.4   600.9    0.00     293    999.0
 180    6:40   73.4    25    0.8   109      1.7   601.0    0.00     326    999.0
 180    6:50   73.3    27    1.3    64      2.5   601.0    0.00     358    999.0
 180    7:00   73.2    25    1.1    83      2.3   601.1    0.00     391    999.0
 180    7:10   75.6    23    1.1   122      2.6   601.2    0.00     424    999.0
 180    7:20   76.6    24    1.4   124      3.1   601.2    0.00     456    999.0
 180    7:30   75.6    25    1.9   101      3.1   601.2    0.00     488    999.0
 180    7:40   75.8    25    3.3   131      5.5   601.2    0.00     519    999.0
 180    7:50   75.2    25    3.1   117      5.4   601.3    0.00     549    999.0
 180    8:00   75.2    26    2.5   111      4.8   601.4    0.00     578    999.0
 180    8:10   76.2    24    2.3   102      5.0   601.8    0.00     608    999.0
 180    8:20   78.6    23    1.7    87      3.1   601.3    0.00     638    999.0
 180    8:30   80.0    22    2.0   182      4.0   601.9    0.00     667    999.0
 180    8:40   80.5    21    2.3    70      4.3   601.9    0.00     696    999.0
 180    8:50   81.8    20    2.0   105      4.0   602.5    0.00     723    999.0
 180    9:00   82.4    19    2.1    83      4.3   602.2    0.00     749    999.0
 180    9:10   83.5    18    2.6   114      4.7   602.5    0.00     773    999.0
 180    9:20   84.2    18    1.7   151      3.9   603.0    0.00     796    999.0
 180    9:30   85.8    17    3.3   128      7.1   602.4    0.00     818    999.0
 180    9:40   85.0    17    3.1   134      6.6   605.1    0.00     839    999.0
 180    9:50   85.9    17    3.4   128      6.4   605.5    0.00     859    999.0
 180   10:00   87.0    16    2.7   118      4.7   605.3    0.00     878    999.0
 180   10:10   87.5    14    3.3   114      6.4   606.6    0.00     899    999.0
 180   10:20   88.6    13    3.3   135      6.1   608.6    0.00     913    999.0
 180   10:30   89.2    10    2.9    92      6.6   610.0    0.00     931    999.0
 180   10:40   89.8    10    3.0    91      6.7   607.7    0.00     947    999.0

Return to Yerington, Nevada graphs page.


Western Regional Climate Center,wrcc@dri.edu